Time;durP1;ratioP1;P1;durP2;ratioP2;P2;SDS_P1;SDS_P2;PMS_P1;PMS_P2;Temp;Humidity;BMP_temperature;BMP_pressure;BME280_temperature;BME280_humidity;BME280_pressure;Samples;Min_cycle;Max_cycle;Signal;HPM_P1;HPM_P2
2023/06/28 00:00:08;;;;;;;3.80;2.40;;;;;;;;;;5124063;27;20512;-67
2023/06/28 00:02:36;;;;;;;2.23;1.90;;;;;;;;;;5118142;28;21087;-67
2023/06/28 00:05:03;;;;;;;3.90;2.23;;;;;;;;;;5127305;27;20506;-67
2023/06/28 00:07:30;;;;;;;2.83;2.00;;;;;;;;;;5125714;27;20881;-65
2023/06/28 00:09:56;;;;;;;2.90;2.00;;;;;;;;;;5123037;28;20453;-67
2023/06/28 00:12:24;;;;;;;3.97;1.83;;;;;;;;;;5124043;27;20456;-66
2023/06/28 00:14:50;;;;;;;2.20;1.80;;;;;;;;;;5128889;27;20478;-66
2023/06/28 00:17:17;;;;;;;3.33;2.00;;;;;;;;;;5124009;28;20450;-66
2023/06/28 00:19:47;;;;;;;2.90;1.60;;;;;;;;;;5121224;28;20461;-66
2023/06/28 00:22:14;;;;;;;2.57;2.10;;;;;;;;;;5116557;28;20462;-67
2023/06/28 00:24:40;;;;;;;4.37;2.53;;;;;;;;;;5110607;27;20485;-66
2023/06/28 00:27:06;;;;;;;6.23;2.07;;;;;;;;;;5122102;28;20830;-66
2023/06/28 00:29:34;;;;;;;3.23;1.97;;;;;;;;;;5114175;27;21222;-67
2023/06/28 00:32:00;;;;;;;3.90;2.00;;;;;;;;;;5126500;27;20528;-67
2023/06/28 00:34:27;;;;;;;9.40;2.47;;;;;;;;;;5128490;27;20454;-65
2023/06/28 00:36:53;;;;;;;5.57;2.40;;;;;;;;;;5125021;27;20463;-67
2023/06/28 00:39:20;;;;;;;4.20;2.13;;;;;;;;;;5121212;27;20477;-66
2023/06/28 00:41:46;;;;;;;5.53;2.50;;;;;;;;;;5128218;27;20899;-66
2023/06/28 00:44:12;;;;;;;3.17;2.10;;;;;;;;;;5122328;27;20492;-66
2023/06/28 00:46:40;;;;;;;4.20;2.43;;;;;;;;;;5123168;27;20525;-67
2023/06/28 00:49:06;;;;;;;4.40;2.57;;;;;;;;;;5123033;27;20498;-67
2023/06/28 00:51:35;;;;;;;5.70;2.97;;;;;;;;;;5109648;28;20526;-67
2023/06/28 00:54:01;;;;;;;6.87;2.67;;;;;;;;;;5122417;27;20465;-67
2023/06/28 00:56:31;;;;;;;5.37;2.47;;;;;;;;;;5128487;27;20437;-67
2023/06/28 00:58:58;;;;;;;5.77;2.37;;;;;;;;;;5116830;27;20507;-67
2023/06/28 01:01:26;;;;;;;4.40;2.07;;;;;;;;;;5117908;27;20943;-67
2023/06/28 01:03:53;;;;;;;4.93;2.97;;;;;;;;;;5122051;27;21081;-67
2023/06/28 01:06:21;;;;;;;5.30;2.27;;;;;;;;;;5123108;27;20469;-66
2023/06/28 01:08:47;;;;;;;8.73;2.47;;;;;;;;;;5113568;28;20497;-67
2023/06/28 01:11:14;;;;;;;3.30;2.17;;;;;;;;;;5122308;27;20852;-65
2023/06/28 01:13:41;;;;;;;4.13;2.33;;;;;;;;;;5123187;28;20473;-66
2023/06/28 01:16:07;;;;;;;3.07;1.97;;;;;;;;;;5123774;27;20528;-68
2023/06/28 01:18:34;;;;;;;4.60;2.27;;;;;;;;;;5122287;27;20502;-68
2023/06/28 01:21:03;;;;;;;3.33;2.10;;;;;;;;;;5127608;27;20842;-68
2023/06/28 01:23:31;;;;;;;4.97;2.60;;;;;;;;;;5122157;28;20542;-65
2023/06/28 01:26:02;;;;;;;3.63;2.13;;;;;;;;;;5123730;27;20465;-66
2023/06/28 01:28:30;;;;;;;4.90;2.30;;;;;;;;;;5121596;28;20551;-67
2023/06/28 01:30:57;;;;;;;3.57;2.10;;;;;;;;;;5121299;28;20467;-67
2023/06/28 01:33:23;;;;;;;3.40;2.10;;;;;;;;;;5120841;28;20485;-66
2023/06/28 01:35:50;;;;;;;3.10;1.90;;;;;;;;;;5124032;27;20534;-67
2023/06/28 01:38:16;;;;;;;7.27;1.93;;;;;;;;;;5119785;27;20533;-67
2023/06/28 01:40:44;;;;;;;4.90;2.17;;;;;;;;;;5116749;27;20485;-66
2023/06/28 01:43:11;;;;;;;4.90;2.40;;;;;;;;;;5121945;27;20490;-67
2023/06/28 01:45:38;;;;;;;3.73;2.20;;;;;;;;;;5119916;27;20458;-65
2023/06/28 01:48:04;;;;;;;5.23;2.57;;;;;;;;;;5121517;28;20855;-67
2023/06/28 01:50:31;;;;;;;4.10;2.20;;;;;;;;;;5121433;28;20474;-67
2023/06/28 01:52:59;;;;;;;2.77;2.10;;;;;;;;;;5122250;27;20472;-69
2023/06/28 01:55:26;;;;;;;5.00;2.47;;;;;;;;;;5122445;27;20533;-67
2023/06/28 01:57:53;;;;;;;3.10;1.90;;;;;;;;;;5121598;28;20541;-68
2023/06/28 02:00:20;;;;;;;4.83;2.53;;;;;;;;;;5122346;27;20518;-67
2023/06/28 02:02:47;;;;;;;4.70;2.53;;;;;;;;;;5115484;27;20512;-67
2023/06/28 02:05:13;;;;;;;8.57;2.53;;;;;;;;;;5110523;28;20585;-66
2023/06/28 02:07:40;;;;;;;2.73;2.30;;;;;;;;;;5116444;27;20447;-67
2023/06/28 02:10:07;;;;;;;4.23;2.50;;;;;;;;;;5116640;27;20474;-67
2023/06/28 02:12:33;;;;;;;5.10;2.40;;;;;;;;;;5119890;28;20514;-68
2023/06/28 02:15:03;;;;;;;6.23;2.30;;;;;;;;;;5121559;27;20462;-67
2023/06/28 02:17:31;;;;;;;3.33;2.00;;;;;;;;;;5121754;27;20478;-67
2023/06/28 02:19:58;;;;;;;3.37;1.83;;;;;;;;;;5120906;27;20458;-65
2023/06/28 02:22:24;;;;;;;5.13;2.23;;;;;;;;;;5115102;28;20466;-67
2023/06/28 02:24:52;;;;;;;2.60;2.10;;;;;;;;;;5121404;27;20489;-67
2023/06/28 02:27:19;;;;;;;5.67;1.97;;;;;;;;;;5112705;28;20454;-66
2023/06/28 02:29:45;;;;;;;2.60;2.20;;;;;;;;;;5120832;27;20517;-67
2023/06/28 02:32:13;;;;;;;5.20;1.93;;;;;;;;;;5119941;27;20506;-67
2023/06/28 02:34:39;;;;;;;2.47;1.93;;;;;;;;;;5117875;28;21140;-66
2023/06/28 02:37:06;;;;;;;7.43;3.63;;;;;;;;;;5124760;27;20570;-67
2023/06/28 02:39:32;;;;;;;6.60;2.10;;;;;;;;;;5113016;27;20565;-67
2023/06/28 02:41:59;;;;;;;9.73;2.50;;;;;;;;;;5119592;28;20450;-67
2023/06/28 02:44:25;;;;;;;3.60;2.00;;;;;;;;;;5107020;27;20554;-65
2023/06/28 02:46:51;;;;;;;3.70;2.00;;;;;;;;;;5120379;28;20460;-65
2023/06/28 02:49:19;;;;;;;2.57;2.10;;;;;;;;;;5116561;28;20501;-65
2023/06/28 02:51:45;;;;;;;4.87;2.20;;;;;;;;;;5116114;28;21025;-67
2023/06/28 02:54:12;;;;;;;4.30;2.90;;;;;;;;;;5116009;27;21096;-67
2023/06/28 02:56:39;;;;;;;5.30;2.30;;;;;;;;;;5118740;28;20924;-67
2023/06/28 02:59:05;;;;;;;2.70;2.20;;;;;;;;;;5120172;28;20565;-67
2023/06/28 03:01:31;;;;;;;4.13;2.63;;;;;;;;;;5124208;27;20460;-67
2023/06/28 03:04:04;;;;;;;6.80;2.20;;;;;;;;;;5112380;28;20543;-67
2023/06/28 03:06:32;;;;;;;4.43;2.60;;;;;;;;;;5112352;28;20453;-67
2023/06/28 03:08:59;;;;;;;4.13;2.10;;;;;;;;;;5117318;27;20522;-67
2023/06/28 03:11:25;;;;;;;3.83;2.83;;;;;;;;;;5123852;28;20465;-67
2023/06/28 03:13:52;;;;;;;4.60;2.40;;;;;;;;;;5123686;28;20526;-66
2023/06/28 03:16:18;;;;;;;6.07;2.40;;;;;;;;;;5112964;28;20565;-67
2023/06/28 03:18:44;;;;;;;5.37;2.23;;;;;;;;;;5112914;28;20559;-68
2023/06/28 03:21:11;;;;;;;4.00;1.80;;;;;;;;;;5109372;28;20453;-65
2023/06/28 03:23:39;;;;;;;2.00;1.60;;;;;;;;;;5113126;28;20537;-66
2023/06/28 03:26:05;;;;;;;4.23;2.60;;;;;;;;;;5129228;28;20470;-67
2023/06/28 03:28:31;;;;;;;4.90;2.43;;;;;;;;;;5125163;28;21005;-67
2023/06/28 03:30:58;;;;;;;3.57;2.10;;;;;;;;;;5117706;28;20511;-67
2023/06/28 03:33:26;;;;;;;3.03;1.90;;;;;;;;;;5116810;28;20458;-66
2023/06/28 03:35:52;;;;;;;2.60;2.07;;;;;;;;;;5109813;28;20490;-66
2023/06/28 03:38:19;;;;;;;4.20;2.33;;;;;;;;;;5108112;28;20533;-67
2023/06/28 03:40:47;;;;;;;4.37;2.40;;;;;;;;;;5117608;28;20485;-66
2023/06/28 03:43:13;;;;;;;5.20;2.57;;;;;;;;;;5116846;28;20499;-68
2023/06/28 03:45:39;;;;;;;6.10;2.77;;;;;;;;;;5120161;28;20541;-66
2023/06/28 03:48:06;;;;;;;3.83;1.93;;;;;;;;;;5118363;28;20450;-65
2023/06/28 03:50:32;;;;;;;2.40;1.90;;;;;;;;;;5123530;28;20510;-68
2023/06/28 03:52:59;;;;;;;2.57;2.13;;;;;;;;;;5120084;28;20485;-67
2023/06/28 03:55:25;;;;;;;5.23;1.80;;;;;;;;;;5119737;28;20478;-67
2023/06/28 03:57:53;;;;;;;4.13;2.50;;;;;;;;;;5118303;28;20450;-66
2023/06/28 04:00:19;;;;;;;2.67;2.00;;;;;;;;;;5121071;28;20940;-66
2023/06/28 04:02:46;;;;;;;2.23;1.70;;;;;;;;;;5118806;28;20473;-67
2023/06/28 04:05:12;;;;;;;5.07;1.90;;;;;;;;;;5123345;28;20509;-67
2023/06/28 04:07:39;;;;;;;2.83;2.00;;;;;;;;;;5109446;28;20527;-67
2023/06/28 04:10:06;;;;;;;3.63;2.20;;;;;;;;;;5110796;28;20439;-68
2023/06/28 04:12:32;;;;;;;7.60;2.50;;;;;;;;;;5121148;28;20446;-66
2023/06/28 04:15:01;;;;;;;3.03;1.70;;;;;;;;;;5121502;27;20493;-66
2023/06/28 04:17:27;;;;;;;5.30;2.43;;;;;;;;;;5112210;28;20447;-67
2023/06/28 04:20:00;;;;;;;2.17;1.80;;;;;;;;;;5123148;27;20521;-67
2023/06/28 04:22:26;;;;;;;4.07;2.00;;;;;;;;;;5120224;27;20478;-66
2023/06/28 04:24:52;;;;;;;5.50;1.70;;;;;;;;;;5120312;27;20514;-67
2023/06/28 04:27:19;;;;;;;3.90;1.90;;;;;;;;;;5106781;28;20534;-67
2023/06/28 04:29:45;;;;;;;5.07;1.70;;;;;;;;;;5122332;27;20898;-68
2023/06/28 04:32:23;;;;;;;3.77;1.93;;;;;;;;;;5121120;28;20470;-66
2023/06/28 04:34:52;;;;;;;3.37;2.10;;;;;;;;;;5121757;28;20453;-67
2023/06/28 04:37:19;;;;;;;2.43;1.93;;;;;;;;;;5113027;27;20486;-65
2023/06/28 04:39:45;;;;;;;3.80;2.20;;;;;;;;;;5114337;28;20573;-66
2023/06/28 04:42:14;;;;;;;4.90;2.13;;;;;;;;;;5125908;27;21029;-67
2023/06/28 04:44:41;;;;;;;4.23;2.80;;;;;;;;;;5111861;27;20490;-66
2023/06/28 04:47:08;;;;;;;3.60;2.00;;;;;;;;;;5119383;28;20446;-66
2023/06/28 04:49:36;;;;;;;4.47;2.10;;;;;;;;;;5117965;28;20457;-67
2023/06/28 04:52:03;;;;;;;2.47;1.83;;;;;;;;;;5119410;27;20473;-66
2023/06/28 04:54:29;;;;;;;7.93;3.43;;;;;;;;;;5121971;27;20537;-67
2023/06/28 04:56:55;;;;;;;7.80;2.53;;;;;;;;;;5122304;28;20505;-66
2023/06/28 04:59:22;;;;;;;7.47;2.83;;;;;;;;;;5118520;27;20506;-68
2023/06/28 05:01:48;;;;;;;6.20;2.73;;;;;;;;;;5119377;27;20545;-67
2023/06/28 05:04:15;;;;;;;6.00;2.30;;;;;;;;;;5107081;28;20852;-67
2023/06/28 05:06:42;;;;;;;3.57;2.53;;;;;;;;;;5114360;27;20604;-68
2023/06/28 05:09:09;;;;;;;3.50;2.83;;;;;;;;;;5119015;27;20482;-67
2023/06/28 05:11:35;;;;;;;5.77;2.23;;;;;;;;;;5119947;28;20473;-67
2023/06/28 05:14:02;;;;;;;4.20;2.37;;;;;;;;;;5119190;27;20518;-66
2023/06/28 05:16:30;;;;;;;8.10;2.43;;;;;;;;;;5118105;27;20446;-65
2023/06/28 05:18:56;;;;;;;7.23;2.43;;;;;;;;;;5116150;28;20736;-66
2023/06/28 05:21:22;;;;;;;7.13;2.40;;;;;;;;;;5119315;28;20534;-67
2023/06/28 05:23:50;;;;;;;4.77;2.30;;;;;;;;;;5120229;28;21184;-66
2023/06/28 05:26:17;;;;;;;5.50;2.60;;;;;;;;;;5111452;27;20481;-66
2023/06/28 05:28:43;;;;;;;8.37;2.87;;;;;;;;;;5121374;27;20446;-67
2023/06/28 05:31:09;;;;;;;6.07;2.57;;;;;;;;;;5117432;27;20553;-67
2023/06/28 05:33:37;;;;;;;7.40;2.77;;;;;;;;;;5111541;28;21021;-67
2023/06/28 05:36:03;;;;;;;6.63;2.60;;;;;;;;;;5121779;27;20485;-65
2023/06/28 05:38:30;;;;;;;4.63;2.33;;;;;;;;;;5117612;27;20488;-67
2023/06/28 05:41:11;;;;;;;5.80;2.30;;;;;;;;;;5118191;27;20694;-66
2023/06/28 05:43:37;;;;;;;4.97;2.60;;;;;;;;;;5112323;27;20477;-66
2023/06/28 05:46:04;;;;;;;5.70;2.30;;;;;;;;;;5113675;27;20550;-66
2023/06/28 05:48:31;;;;;;;4.90;2.30;;;;;;;;;;5115948;28;20510;-66
2023/06/28 05:50:58;;;;;;;6.53;2.93;;;;;;;;;;5112634;28;20485;-66
2023/06/28 05:53:24;;;;;;;5.47;2.00;;;;;;;;;;5114384;28;20513;-66
2023/06/28 05:55:51;;;;;;;5.40;2.30;;;;;;;;;;5128178;27;20528;-65
2023/06/28 05:58:19;;;;;;;5.87;2.77;;;;;;;;;;5109081;27;20946;-67
2023/06/28 06:00:45;;;;;;;4.07;2.73;;;;;;;;;;5117620;27;20474;-66
2023/06/28 06:03:12;;;;;;;5.50;2.30;;;;;;;;;;5128513;27;20552;-66
2023/06/28 06:05:38;;;;;;;6.17;2.50;;;;;;;;;;5121785;27;20958;-67
2023/06/28 06:08:05;;;;;;;5.00;2.40;;;;;;;;;;5122498;27;20474;-68
2023/06/28 06:10:33;;;;;;;6.87;3.30;;;;;;;;;;5124027;27;20517;-69
2023/06/28 06:12:59;;;;;;;6.63;2.60;;;;;;;;;;5110619;27;20447;-67
2023/06/28 06:15:27;;;;;;;12.73;3.33;;;;;;;;;;5115781;27;20482;-68
2023/06/28 06:17:53;;;;;;;8.63;3.43;;;;;;;;;;5104958;28;20891;-69
2023/06/28 06:20:20;;;;;;;7.37;3.40;;;;;;;;;;5121460;27;20488;-65
2023/06/28 06:22:47;;;;;;;5.67;3.40;;;;;;;;;;5121480;27;20485;-69
2023/06/28 06:25:13;;;;;;;6.93;2.80;;;;;;;;;;5119843;28;20530;-68
2023/06/28 06:27:40;;;;;;;5.63;3.60;;;;;;;;;;5124450;27;20473;-67
2023/06/28 06:30:07;;;;;;;7.57;3.20;;;;;;;;;;5121942;27;20450;-65
2023/06/28 06:32:35;;;;;;;6.73;3.20;;;;;;;;;;5109563;28;20476;-66
2023/06/28 06:35:01;;;;;;;9.47;2.57;;;;;;;;;;5120736;27;20482;-66
2023/06/28 06:37:28;;;;;;;9.17;2.93;;;;;;;;;;5121698;27;20457;-68
2023/06/28 06:39:54;;;;;;;8.97;2.87;;;;;;;;;;5119211;28;20550;-68
2023/06/28 06:42:21;;;;;;;6.90;2.63;;;;;;;;;;5121406;27;20469;-68
2023/06/28 06:44:47;;;;;;;6.93;3.37;;;;;;;;;;5116557;27;20514;-67
2023/06/28 06:47:13;;;;;;;9.00;3.53;;;;;;;;;;5117311;28;20474;-67
2023/06/28 06:49:41;;;;;;;5.00;2.30;;;;;;;;;;5119014;28;20458;-68
2023/06/28 06:52:08;;;;;;;7.80;2.13;;;;;;;;;;5121736;27;20441;-68
2023/06/28 06:54:34;;;;;;;8.57;2.47;;;;;;;;;;5124310;27;20458;-67
2023/06/28 06:57:02;;;;;;;7.50;2.60;;;;;;;;;;5125536;27;20454;-68
2023/06/28 06:59:28;;;;;;;5.97;2.30;;;;;;;;;;5117995;27;20450;-69
2023/06/28 07:01:55;;;;;;;6.80;1.90;;;;;;;;;;5115038;28;20438;-68
2023/06/28 07:04:22;;;;;;;5.10;2.27;;;;;;;;;;5113857;28;20512;-68
2023/06/28 07:06:50;;;;;;;6.60;2.00;;;;;;;;;;5120047;27;20446;-68
2023/06/28 07:09:17;;;;;;;6.50;1.90;;;;;;;;;;5112585;28;20453;-64
2023/06/28 07:11:44;;;;;;;9.37;2.63;;;;;;;;;;5122001;28;20437;-66
2023/06/28 07:14:10;;;;;;;5.83;1.90;;;;;;;;;;5105896;28;20474;-66
2023/06/28 07:16:36;;;;;;;9.50;2.40;;;;;;;;;;5104211;28;20471;-66
2023/06/28 07:19:03;;;;;;;4.43;2.20;;;;;;;;;;5124166;27;20483;-63
2023/06/28 07:21:29;;;;;;;6.83;2.87;;;;;;;;;;5128767;28;20536;-66
2023/06/28 07:23:57;;;;;;;5.60;3.47;;;;;;;;;;5127188;28;20463;-66
2023/06/28 07:26:24;;;;;;;8.77;3.50;;;;;;;;;;5107072;28;20488;-66
2023/06/28 07:28:50;;;;;;;5.50;2.87;;;;;;;;;;5129721;28;20474;-67
2023/06/28 07:31:17;;;;;;;9.33;3.73;;;;;;;;;;5121470;28;20486;-67
2023/06/28 07:33:43;;;;;;;7.23;3.53;;;;;;;;;;5123245;28;20484;-67
2023/06/28 07:36:10;;;;;;;5.17;2.90;;;;;;;;;;5119861;28;20477;-67
2023/06/28 07:38:36;;;;;;;5.67;2.70;;;;;;;;;;5115441;28;20446;-67
2023/06/28 07:41:04;;;;;;;6.80;3.53;;;;;;;;;;5119893;28;20490;-67
2023/06/28 07:43:30;;;;;;;6.27;2.80;;;;;;;;;;5122344;28;20497;-68
2023/06/28 07:45:59;;;;;;;7.30;2.60;;;;;;;;;;5125415;28;20481;-67
2023/06/28 07:48:25;;;;;;;5.90;2.37;;;;;;;;;;5129534;27;20466;-68
2023/06/28 07:50:52;;;;;;;8.80;2.47;;;;;;;;;;5123446;28;20449;-68
2023/06/28 07:53:18;;;;;;;7.73;2.50;;;;;;;;;;5119695;27;20529;-68
2023/06/28 07:55:44;;;;;;;5.17;2.37;;;;;;;;;;5114603;27;20485;-68
2023/06/28 07:58:12;;;;;;;8.43;3.00;;;;;;;;;;5118851;28;20480;-66
2023/06/28 08:00:39;;;;;;;8.20;2.83;;;;;;;;;;5116850;27;20510;-66
2023/06/28 08:03:05;;;;;;;6.87;2.87;;;;;;;;;;5119727;27;20447;-68
2023/06/28 08:05:31;;;;;;;6.67;2.50;;;;;;;;;;5117046;27;20501;-67
2023/06/28 08:07:58;;;;;;;12.37;2.97;;;;;;;;;;5109189;28;20474;-67
2023/06/28 08:10:25;;;;;;;7.63;2.70;;;;;;;;;;5124280;27;20544;-69
2023/06/28 08:12:55;;;;;;;8.07;2.50;;;;;;;;;;5111440;28;20446;-68
2023/06/28 08:15:23;;;;;;;5.10;2.33;;;;;;;;;;5120849;28;20517;-69
2023/06/28 08:17:49;;;;;;;6.10;2.40;;;;;;;;;;5127299;27;20814;-67
2023/06/28 08:20:16;;;;;;;6.40;2.40;;;;;;;;;;5123794;27;20520;-68
2023/06/28 08:22:42;;;;;;;6.13;2.17;;;;;;;;;;5125041;27;20445;-66
2023/06/28 08:25:09;;;;;;;11.70;2.33;;;;;;;;;;5123761;27;20479;-67
2023/06/28 08:27:36;;;;;;;5.10;2.00;;;;;;;;;;5123305;28;20465;-68
2023/06/28 08:30:02;;;;;;;7.53;2.53;;;;;;;;;;5122585;28;21165;-70
2023/06/28 08:32:30;;;;;;;6.53;1.83;;;;;;;;;;5126354;27;20958;-67
2023/06/28 08:34:56;;;;;;;5.83;1.80;;;;;;;;;;5122811;27;20504;-68
2023/06/28 08:37:30;;;;;;;4.87;1.83;;;;;;;;;;5116308;28;20451;-67
2023/06/28 08:39:56;;;;;;;5.83;1.80;;;;;;;;;;5120353;27;20454;-68
2023/06/28 08:42:23;;;;;;;3.80;1.33;;;;;;;;;;5119010;27;20457;-66
2023/06/28 08:44:50;;;;;;;4.93;2.00;;;;;;;;;;5112521;28;20510;-69
2023/06/28 08:47:17;;;;;;;4.33;1.50;;;;;;;;;;5119018;27;20442;-68
2023/06/28 08:49:45;;;;;;;4.60;1.80;;;;;;;;;;5122289;28;20540;-66
2023/06/28 08:52:12;;;;;;;4.63;1.80;;;;;;;;;;5118176;28;20465;-68
2023/06/28 08:54:39;;;;;;;4.27;1.93;;;;;;;;;;5125751;27;20491;-67
2023/06/28 08:57:06;;;;;;;4.43;2.73;;;;;;;;;;5114829;27;20567;-67
2023/06/28 08:59:33;;;;;;;5.60;2.63;;;;;;;;;;5121535;27;20489;-66
2023/06/28 09:02:01;;;;;;;4.90;1.80;;;;;;;;;;5115420;28;20514;-66
2023/06/28 09:04:27;;;;;;;3.87;1.60;;;;;;;;;;5111323;27;21034;-68
2023/06/28 09:06:56;;;;;;;8.60;2.30;;;;;;;;;;5111862;27;20457;-67
2023/06/28 09:09:22;;;;;;;7.00;2.23;;;;;;;;;;5111501;28;20461;-66
2023/06/28 09:11:49;;;;;;;5.13;1.97;;;;;;;;;;5118453;27;20453;-68
2023/06/28 09:14:15;;;;;;;3.47;1.87;;;;;;;;;;5114384;27;20478;-68
2023/06/28 09:16:42;;;;;;;5.10;2.50;;;;;;;;;;5118500;28;20541;-68
2023/06/28 09:19:08;;;;;;;7.27;2.23;;;;;;;;;;5131676;27;20675;-68
2023/06/28 09:21:34;;;;;;;5.00;2.40;;;;;;;;;;5117535;27;20513;-68
2023/06/28 09:24:02;;;;;;;7.00;2.60;;;;;;;;;;5115992;27;20530;-68
2023/06/28 09:26:32;;;;;;;3.93;2.20;;;;;;;;;;5118145;27;20822;-68
2023/06/28 09:28:59;;;;;;;5.30;2.50;;;;;;;;;;5114712;28;20456;-69
2023/06/28 09:31:26;;;;;;;4.80;2.20;;;;;;;;;;5109626;27;20463;-69
2023/06/28 09:33:53;;;;;;;3.97;1.80;;;;;;;;;;5113498;28;20469;-69
2023/06/28 09:36:19;;;;;;;8.73;2.63;;;;;;;;;;5117026;27;20459;-68
2023/06/28 09:38:46;;;;;;;8.50;3.23;;;;;;;;;;5127912;27;20859;-68
2023/06/28 09:41:14;;;;;;;5.20;2.10;;;;;;;;;;5108709;28;20481;-67
2023/06/28 09:43:42;;;;;;;3.43;2.40;;;;;;;;;;5121704;28;20516;-68
2023/06/28 09:46:12;;;;;;;5.37;2.07;;;;;;;;;;5117104;27;20864;-68
2023/06/28 09:48:41;;;;;;;2.73;1.70;;;;;;;;;;5105393;28;20450;-68
2023/06/28 09:51:08;;;;;;;3.20;2.20;;;;;;;;;;5121177;27;20481;-68
2023/06/28 09:53:35;;;;;;;4.87;1.80;;;;;;;;;;5119732;27;20470;-67
2023/06/28 09:56:01;;;;;;;3.30;1.80;;;;;;;;;;5117564;28;20454;-66
2023/06/28 09:58:30;;;;;;;2.73;1.80;;;;;;;;;;5111069;28;20863;-68
2023/06/28 10:01:00;;;;;;;4.10;1.63;;;;;;;;;;5124412;27;20955;-68
2023/06/28 10:03:27;;;;;;;4.37;2.10;;;;;;;;;;5125420;27;20471;-67
2023/06/28 10:05:57;;;;;;;2.27;1.73;;;;;;;;;;5120642;27;20493;-67
2023/06/28 10:08:23;;;;;;;4.67;2.37;;;;;;;;;;5120823;27;20455;-68
2023/06/28 10:10:54;;;;;;;4.27;1.70;;;;;;;;;;5112219;28;20478;-63
2023/06/28 10:13:21;;;;;;;6.10;2.20;;;;;;;;;;5121245;28;20473;-63
2023/06/28 10:15:54;;;;;;;7.57;2.73;;;;;;;;;;5121515;28;20481;-64
2023/06/28 10:18:21;;;;;;;5.57;2.50;;;;;;;;;;5121147;27;20470;-63
2023/06/28 10:20:48;;;;;;;6.40;2.27;;;;;;;;;;5118157;27;20754;-63
2023/06/28 10:23:14;;;;;;;3.10;1.70;;;;;;;;;;5122075;28;20466;-63
2023/06/28 10:25:41;;;;;;;3.13;1.90;;;;;;;;;;5118834;27;20532;-64
2023/06/28 10:28:07;;;;;;;5.10;1.80;;;;;;;;;;5118940;27;20449;-62
2023/06/28 10:30:34;;;;;;;4.10;2.20;;;;;;;;;;5116628;27;20525;-63
2023/06/28 10:33:03;;;;;;;4.50;2.67;;;;;;;;;;5115831;28;20466;-62
2023/06/28 10:35:30;;;;;;;5.70;2.37;;;;;;;;;;5124915;27;20489;-62
2023/06/28 10:37:56;;;;;;;4.10;2.20;;;;;;;;;;5110570;28;20450;-63
2023/06/28 10:40:23;;;;;;;3.93;1.70;;;;;;;;;;5123945;27;20485;-63
2023/06/28 10:42:49;;;;;;;4.37;2.40;;;;;;;;;;5127700;27;20461;-64
2023/06/28 10:45:16;;;;;;;4.90;2.00;;;;;;;;;;5122635;27;20580;-63
2023/06/28 10:47:54;;;;;;;7.63;3.63;;;;;;;;;;5128949;27;20485;-63
2023/06/28 10:50:23;;;;;;;7.23;2.93;;;;;;;;;;5114249;27;20901;-63
2023/06/28 10:52:52;;;;;;;7.93;2.30;;;;;;;;;;5116979;27;20450;-63
2023/06/28 10:55:19;;;;;;;4.63;2.10;;;;;;;;;;5120883;28;20557;-63
2023/06/28 10:57:45;;;;;;;6.40;2.50;;;;;;;;;;5109987;28;20482;-63
2023/06/28 11:00:27;;;;;;;4.10;2.07;;;;;;;;;;5113441;27;20526;-63
2023/06/28 11:02:54;;;;;;;4.30;2.23;;;;;;;;;;5115031;27;20879;-64
2023/06/28 11:05:38;;;;;;;4.93;2.00;;;;;;;;;;5113476;27;20458;-64
2023/06/28 11:08:09;;;;;;;3.97;1.83;;;;;;;;;;5127510;27;20457;-63
2023/06/28 11:10:39;;;;;;;2.40;1.60;;;;;;;;;;5118252;28;20474;-63
2023/06/28 11:13:08;;;;;;;3.53;2.43;;;;;;;;;;5108352;28;20470;-63
2023/06/28 11:15:36;;;;;;;4.37;2.40;;;;;;;;;;5116040;28;20454;-64
2023/06/28 11:18:12;;;;;;;4.50;2.40;;;;;;;;;;5123548;28;20461;-64
2023/06/28 11:20:48;;;;;;;2.80;2.10;;;;;;;;;;5108945;27;20761;-64
2023/06/28 11:23:23;;;;;;;3.00;2.37;;;;;;;;;;5120368;28;20509;-64
2023/06/28 11:25:54;;;;;;;6.60;2.97;;;;;;;;;;5117223;28;20526;-64
2023/06/28 11:28:22;;;;;;;2.90;2.30;;;;;;;;;;5119721;28;20474;-63
2023/06/28 11:30:51;;;;;;;5.73;2.70;;;;;;;;;;5109576;28;20486;-63
2023/06/28 11:33:17;;;;;;;5.27;2.60;;;;;;;;;;5125914;28;20450;-64
2023/06/28 11:35:44;;;;;;;3.70;2.67;;;;;;;;;;5126239;28;20499;-63
2023/06/28 11:38:12;;;;;;;5.80;2.67;;;;;;;;;;5109809;28;20529;-63
2023/06/28 11:40:39;;;;;;;6.90;3.07;;;;;;;;;;5112723;28;20532;-63
2023/06/28 11:43:05;;;;;;;5.40;2.67;;;;;;;;;;5116581;28;21187;-63
2023/06/28 11:45:32;;;;;;;3.53;2.80;;;;;;;;;;5117024;28;20518;-63
2023/06/28 11:47:59;;;;;;;4.80;2.87;;;;;;;;;;5112579;28;20449;-66
2023/06/28 11:50:25;;;;;;;4.40;2.50;;;;;;;;;;5117948;28;20530;-63
2023/06/28 11:52:52;;;;;;;3.20;2.60;;;;;;;;;;5114851;28;20497;-63
2023/06/28 11:55:27;;;;;;;5.07;3.40;;;;;;;;;;5105102;28;20493;-64
2023/06/28 11:57:53;;;;;;;4.30;3.73;;;;;;;;;;5104912;28;20473;-64
2023/06/28 12:00:20;;;;;;;3.20;2.43;;;;;;;;;;5122371;28;20480;-64
2023/06/28 12:02:47;;;;;;;3.50;2.40;;;;;;;;;;5110680;28;20508;-64
2023/06/28 12:05:13;;;;;;;4.07;2.93;;;;;;;;;;5118410;28;20448;-63
2023/06/28 12:07:40;;;;;;;8.83;2.90;;;;;;;;;;5119195;28;20913;-63
2023/06/28 12:10:06;;;;;;;7.13;3.03;;;;;;;;;;5115371;28;20534;-64
2023/06/28 12:12:35;;;;;;;6.80;3.33;;;;;;;;;;5118464;28;20465;-64
2023/06/28 12:15:01;;;;;;;6.83;3.57;;;;;;;;;;5115843;28;20477;-64
2023/06/28 12:17:36;;;;;;;8.00;4.57;;;;;;;;;;5120479;28;20448;-63
2023/06/28 12:20:03;;;;;;;5.67;4.17;;;;;;;;;;5116132;28;21077;-69
2023/06/28 12:22:38;;;;;;;5.10;3.63;;;;;;;;;;5124586;28;20491;-66
2023/06/28 12:25:04;;;;;;;6.07;5.47;;;;;;;;;;5112114;28;20499;-67
2023/06/28 12:27:31;;;;;;;6.00;4.80;;;;;;;;;;5120270;28;20509;-68
2023/06/28 12:29:59;;;;;;;5.57;5.03;;;;;;;;;;5114523;28;20510;-66
2023/06/28 12:32:26;;;;;;;5.40;4.40;;;;;;;;;;5119388;28;20891;-69
2023/06/28 12:34:52;;;;;;;5.27;4.47;;;;;;;;;;5117436;28;20453;-69
2023/06/28 12:37:24;;;;;;;6.53;5.67;;;;;;;;;;5123006;27;20446;-68
2023/06/28 12:39:54;;;;;;;5.40;4.67;;;;;;;;;;5129799;27;20796;-67
2023/06/28 12:42:21;;;;;;;6.00;4.93;;;;;;;;;;5112887;27;20478;-69
2023/06/28 12:44:51;;;;;;;7.07;5.73;;;;;;;;;;5122978;28;20516;-70
2023/06/28 12:47:19;;;;;;;5.37;4.30;;;;;;;;;;5115824;27;20481;-69
2023/06/28 12:49:45;;;;;;;5.73;5.20;;;;;;;;;;5121961;27;20474;-68
2023/06/28 12:52:12;;;;;;;6.87;5.90;;;;;;;;;;5123069;28;20866;-70
2023/06/28 12:54:38;;;;;;;8.20;5.27;;;;;;;;;;5132433;27;20489;-69
2023/06/28 12:57:05;;;;;;;7.33;6.23;;;;;;;;;;5120259;28;20457;-70
2023/06/28 12:59:32;;;;;;;7.30;6.40;;;;;;;;;;5117501;28;20521;-69
2023/06/28 13:01:58;;;;;;;9.07;8.27;;;;;;;;;;5123001;27;20548;-70
2023/06/28 13:04:28;;;;;;;8.73;7.43;;;;;;;;;;5120647;28;20473;-69
2023/06/28 13:06:54;;;;;;;9.20;8.30;;;;;;;;;;5121017;28;20515;-68
2023/06/28 13:09:20;;;;;;;9.17;7.30;;;;;;;;;;5119958;27;20474;-68
2023/06/28 13:11:47;;;;;;;7.23;6.53;;;;;;;;;;5122489;27;20522;-68
2023/06/28 13:14:15;;;;;;;9.63;6.70;;;;;;;;;;5122700;28;20471;-68
2023/06/28 13:16:41;;;;;;;8.03;7.17;;;;;;;;;;5121312;28;20465;-69
2023/06/28 13:19:08;;;;;;;7.17;6.40;;;;;;;;;;5121007;27;20446;-69
2023/06/28 13:21:36;;;;;;;8.10;7.30;;;;;;;;;;5122699;27;20509;-69
2023/06/28 13:24:03;;;;;;;8.27;6.50;;;;;;;;;;5121558;28;20481;-69
2023/06/28 13:26:30;;;;;;;8.60;6.97;;;;;;;;;;5119607;27;20458;-69
2023/06/28 13:28:56;;;;;;;7.63;6.83;;;;;;;;;;5120719;27;20446;-67
2023/06/28 13:31:22;;;;;;;7.00;5.67;;;;;;;;;;5119326;27;20478;-68
2023/06/28 13:33:49;;;;;;;6.60;4.97;;;;;;;;;;5121097;28;20450;-68
2023/06/28 13:36:19;;;;;;;7.20;4.57;;;;;;;;;;5121594;27;20458;-68
2023/06/28 13:38:46;;;;;;;7.20;5.67;;;;;;;;;;5122753;27;20485;-67
2023/06/28 13:41:13;;;;;;;6.70;4.90;;;;;;;;;;5121482;28;20981;-68
2023/06/28 13:43:39;;;;;;;7.27;4.80;;;;;;;;;;5120870;28;20506;-69
2023/06/28 13:46:07;;;;;;;5.30;4.70;;;;;;;;;;5122563;27;20534;-69
2023/06/28 13:48:33;;;;;;;5.80;3.90;;;;;;;;;;5121736;28;20446;-69
2023/06/28 13:51:00;;;;;;;10.03;4.30;;;;;;;;;;5112258;28;20523;-69
2023/06/28 13:53:27;;;;;;;4.80;4.23;;;;;;;;;;5121908;27;20473;-68
2023/06/28 13:55:54;;;;;;;7.13;4.60;;;;;;;;;;5120796;27;20489;-67
2023/06/28 13:58:21;;;;;;;5.80;4.60;;;;;;;;;;5117444;28;20878;-69
2023/06/28 14:00:47;;;;;;;8.73;4.53;;;;;;;;;;5119853;28;20477;-69
2023/06/28 14:03:14;;;;;;;5.13;4.40;;;;;;;;;;5124643;27;20473;-65
2023/06/28 14:05:41;;;;;;;5.80;4.83;;;;;;;;;;5112374;28;20541;-68
2023/06/28 14:08:07;;;;;;;4.67;3.83;;;;;;;;;;5115332;27;20454;-69
2023/06/28 14:10:33;;;;;;;5.20;3.57;;;;;;;;;;5116634;27;21058;-68
2023/06/28 14:13:01;;;;;;;6.00;4.30;;;;;;;;;;5116497;27;20515;-69
2023/06/28 14:15:28;;;;;;;10.50;4.70;;;;;;;;;;5115716;28;20482;-69
2023/06/28 14:17:54;;;;;;;6.20;4.37;;;;;;;;;;5121532;27;20756;-69
2023/06/28 14:20:20;;;;;;;6.60;3.87;;;;;;;;;;5114745;28;20450;-69
2023/06/28 14:22:50;;;;;;;5.93;3.83;;;;;;;;;;5121462;27;20462;-68
2023/06/28 14:25:17;;;;;;;5.30;3.90;;;;;;;;;;5120984;28;20465;-69
2023/06/28 14:27:43;;;;;;;8.00;3.70;;;;;;;;;;5123984;27;20514;-69
2023/06/28 14:30:19;;;;;;;6.63;3.97;;;;;;;;;;5121664;27;20447;-69
2023/06/28 14:32:50;;;;;;;7.23;3.90;;;;;;;;;;5103417;28;20483;-67
2023/06/28 14:35:16;;;;;;;5.93;3.10;;;;;;;;;;5117762;27;20564;-67
2023/06/28 14:37:43;;;;;;;5.90;3.23;;;;;;;;;;5119047;27;20471;-69
2023/06/28 14:40:10;;;;;;;3.60;2.70;;;;;;;;;;5122363;27;20446;-68
2023/06/28 14:42:38;;;;;;;4.93;3.00;;;;;;;;;;5120312;28;20466;-69